sensor_id;sensor_type;location;lat;lon;timestamp;noise_LAeq;noise_LA_min;noise_LA_max;noise_LA01;noise_LA95
72686;Laerm;61365;52.162;4.500;2023-09-18T00:00:48;42.47;33.52;53.11;;
72686;Laerm;61365;52.162;4.500;2023-09-18T00:03:19;42.60;33.91;54.80;;
72686;Laerm;61365;52.162;4.500;2023-09-18T00:05:47;42.60;33.65;54.74;;
72686;Laerm;61365;52.162;4.500;2023-09-18T00:08:17;42.46;33.95;53.32;;
72686;Laerm;61365;52.162;4.500;2023-09-18T00:10:49;42.49;33.81;53.63;;
72686;Laerm;61365;52.162;4.500;2023-09-18T00:13:16;42.67;33.49;53.16;;
72686;Laerm;61365;52.162;4.500;2023-09-18T00:15:42;42.55;33.72;53.69;;
72686;Laerm;61365;52.162;4.500;2023-09-18T00:18:10;42.48;33.77;53.45;;
72686;Laerm;61365;52.162;4.500;2023-09-18T00:20:36;42.59;33.65;53.34;;
72686;Laerm;61365;52.162;4.500;2023-09-18T00:23:02;42.58;33.47;53.34;;
72686;Laerm;61365;52.162;4.500;2023-09-18T00:25:28;42.66;33.73;53.72;;
72686;Laerm;61365;52.162;4.500;2023-09-18T00:27:57;42.44;33.87;53.42;;
72686;Laerm;61365;52.162;4.500;2023-09-18T00:30:23;42.67;33.08;53.32;;
72686;Laerm;61365;52.162;4.500;2023-09-18T00:32:49;42.68;33.60;55.50;;
72686;Laerm;61365;52.162;4.500;2023-09-18T00:35:17;42.63;33.45;53.36;;
72686;Laerm;61365;52.162;4.500;2023-09-18T00:37:43;42.81;32.54;53.67;;
72686;Laerm;61365;52.162;4.500;2023-09-18T00:40:10;44.53;31.09;64.52;;
72686;Laerm;61365;52.162;4.500;2023-09-18T00:42:36;45.00;31.17;63.89;;
72686;Laerm;61365;52.162;4.500;2023-09-18T00:45:03;45.16;31.06;62.63;;
72686;Laerm;61365;52.162;4.500;2023-09-18T00:47:29;45.08;31.23;64.86;;
72686;Laerm;61365;52.162;4.500;2023-09-18T00:49:55;45.95;31.09;65.79;;
72686;Laerm;61365;52.162;4.500;2023-09-18T00:52:23;44.76;31.39;62.57;;
72686;Laerm;61365;52.162;4.500;2023-09-18T00:54:50;45.84;31.27;64.33;;
72686;Laerm;61365;52.162;4.500;2023-09-18T00:57:16;45.93;30.97;64.32;;
72686;Laerm;61365;52.162;4.500;2023-09-18T00:59:43;45.68;31.18;65.57;;
72686;Laerm;61365;52.162;4.500;2023-09-18T01:02:10;45.91;30.90;62.64;;
72686;Laerm;61365;52.162;4.500;2023-09-18T01:04:37;45.04;30.84;63.93;;
72686;Laerm;61365;52.162;4.500;2023-09-18T01:07:03;45.31;31.10;62.59;;
72686;Laerm;61365;52.162;4.500;2023-09-18T01:09:34;44.94;31.25;65.88;;
72686;Laerm;61365;52.162;4.500;2023-09-18T01:14:50;42.70;33.17;53.55;;
72686;Laerm;61365;52.162;4.500;2023-09-18T01:17:22;42.69;32.81;54.19;;
72686;Laerm;61365;52.162;4.500;2023-09-18T01:19:48;42.61;32.86;55.90;;
72686;Laerm;61365;52.162;4.500;2023-09-18T01:22:16;42.58;32.92;53.55;;
72686;Laerm;61365;52.162;4.500;2023-09-18T01:24:44;42.74;32.80;54.50;;
72686;Laerm;61365;52.162;4.500;2023-09-18T01:27:11;42.66;33.11;53.35;;
72686;Laerm;61365;52.162;4.500;2023-09-18T01:29:44;42.76;32.88;53.86;;
72686;Laerm;61365;52.162;4.500;2023-09-18T01:32:10;42.50;32.77;53.26;;
72686;Laerm;61365;52.162;4.500;2023-09-18T01:34:41;42.58;33.06;53.38;;
72686;Laerm;61365;52.162;4.500;2023-09-18T01:37:11;42.39;32.69;53.52;;
72686;Laerm;61365;52.162;4.500;2023-09-18T01:39:39;42.56;32.77;53.52;;
72686;Laerm;61365;52.162;4.500;2023-09-18T01:42:06;42.52;33.10;53.75;;
72686;Laerm;61365;52.162;4.500;2023-09-18T01:44:35;42.74;32.93;55.40;;
72686;Laerm;61365;52.162;4.500;2023-09-18T01:47:06;42.60;32.96;55.23;;
72686;Laerm;61365;52.162;4.500;2023-09-18T01:49:34;42.46;32.96;53.40;;
72686;Laerm;61365;52.162;4.500;2023-09-18T01:52:01;42.57;32.80;53.28;;
72686;Laerm;61365;52.162;4.500;2023-09-18T01:54:27;42.74;32.88;53.38;;
72686;Laerm;61365;52.162;4.500;2023-09-18T01:56:53;42.50;32.92;53.86;;
72686;Laerm;61365;52.162;4.500;2023-09-18T01:59:20;42.50;32.74;53.57;;
72686;Laerm;61365;52.162;4.500;2023-09-18T02:01:48;42.39;33.01;53.68;;
72686;Laerm;61365;52.162;4.500;2023-09-18T02:04:14;42.22;32.32;54.38;;
72686;Laerm;61365;52.162;4.500;2023-09-18T02:06:41;42.39;32.11;54.67;;
72686;Laerm;61365;52.162;4.500;2023-09-18T02:09:07;42.49;33.00;53.30;;
72686;Laerm;61365;52.162;4.500;2023-09-18T02:11:43;42.51;32.58;53.64;;
72686;Laerm;61365;52.162;4.500;2023-09-18T02:14:10;42.61;33.18;53.33;;
72686;Laerm;61365;52.162;4.500;2023-09-18T02:16:38;42.62;33.09;53.42;;
72686;Laerm;61365;52.162;4.500;2023-09-18T02:19:07;42.62;32.82;53.23;;
72686;Laerm;61365;52.162;4.500;2023-09-18T02:21:34;42.66;32.99;55.06;;
72686;Laerm;61365;52.162;4.500;2023-09-18T02:24:01;42.65;32.59;53.32;;
72686;Laerm;61365;52.162;4.500;2023-09-18T02:26:28;42.41;33.03;54.78;;
72686;Laerm;61365;52.162;4.500;2023-09-18T02:28:57;42.32;32.57;53.48;;
72686;Laerm;61365;52.162;4.500;2023-09-18T02:31:24;42.53;33.01;55.15;;
72686;Laerm;61365;52.162;4.500;2023-09-18T02:33:50;42.62;33.08;54.29;;
72686;Laerm;61365;52.162;4.500;2023-09-18T02:36:16;42.53;32.90;53.29;;
72686;Laerm;61365;52.162;4.500;2023-09-18T02:38:42;42.57;33.03;53.62;;
72686;Laerm;61365;52.162;4.500;2023-09-18T02:41:09;42.55;32.92;55.22;;
72686;Laerm;61365;52.162;4.500;2023-09-18T02:43:35;42.66;32.67;53.67;;
72686;Laerm;61365;52.162;4.500;2023-09-18T02:46:04;42.46;32.89;54.75;;
72686;Laerm;61365;52.162;4.500;2023-09-18T02:48:33;44.06;31.21;64.52;;
72686;Laerm;61365;52.162;4.500;2023-09-18T02:51:00;45.12;31.44;62.71;;
72686;Laerm;61365;52.162;4.500;2023-09-18T02:53:26;44.58;31.08;62.78;;
72686;Laerm;61365;52.162;4.500;2023-09-18T02:55:54;42.60;32.74;53.68;;
72686;Laerm;61365;52.162;4.500;2023-09-18T02:58:22;42.58;33.20;53.24;;
72686;Laerm;61365;52.162;4.500;2023-09-18T03:00:49;42.52;32.51;54.94;;
72686;Laerm;61365;52.162;4.500;2023-09-18T03:03:16;42.56;33.19;53.01;;
72686;Laerm;61365;52.162;4.500;2023-09-18T03:05:44;42.67;33.24;54.25;;
72686;Laerm;61365;52.162;4.500;2023-09-18T03:08:11;42.61;33.23;53.00;;
72686;Laerm;61365;52.162;4.500;2023-09-18T03:10:39;42.64;32.82;54.52;;
72686;Laerm;61365;52.162;4.500;2023-09-18T03:13:07;42.55;33.25;52.96;;
72686;Laerm;61365;52.162;4.500;2023-09-18T03:15:34;42.29;33.11;53.28;;
72686;Laerm;61365;52.162;4.500;2023-09-18T03:18:02;42.28;32.68;53.27;;
72686;Laerm;61365;52.162;4.500;2023-09-18T03:20:29;42.48;33.02;55.17;;
72686;Laerm;61365;52.162;4.500;2023-09-18T03:22:59;42.42;33.16;53.10;;
72686;Laerm;61365;52.162;4.500;2023-09-18T03:25:26;42.51;32.81;55.54;;
72686;Laerm;61365;52.162;4.500;2023-09-18T03:27:53;42.47;33.01;53.25;;
72686;Laerm;61365;52.162;4.500;2023-09-18T03:30:21;42.61;33.02;53.30;;
72686;Laerm;61365;52.162;4.500;2023-09-18T03:32:47;42.47;32.86;53.41;;
72686;Laerm;61365;52.162;4.500;2023-09-18T03:35:17;42.46;33.23;52.99;;
72686;Laerm;61365;52.162;4.500;2023-09-18T03:37:48;42.55;33.24;53.30;;
72686;Laerm;61365;52.162;4.500;2023-09-18T03:40:15;42.52;33.07;54.99;;
72686;Laerm;61365;52.162;4.500;2023-09-18T03:42:41;42.60;33.06;53.10;;
72686;Laerm;61365;52.162;4.500;2023-09-18T03:45:08;42.59;33.16;53.09;;
72686;Laerm;61365;52.162;4.500;2023-09-18T03:47:35;42.66;33.42;54.93;;
72686;Laerm;61365;52.162;4.500;2023-09-18T03:50:06;42.56;31.88;60.35;;
72686;Laerm;61365;52.162;4.500;2023-09-18T03:52:32;44.49;31.44;62.22;;
72686;Laerm;61365;52.162;4.500;2023-09-18T03:54:58;44.28;31.52;63.99;;
72686;Laerm;61365;52.162;4.500;2023-09-18T03:57:24;43.83;31.45;62.21;;
72686;Laerm;61365;52.162;4.500;2023-09-18T03:59:50;43.81;31.32;62.40;;
72686;Laerm;61365;52.162;4.500;2023-09-18T04:02:16;44.36;31.48;62.18;;
72686;Laerm;61365;52.162;4.500;2023-09-18T04:04:43;44.00;31.29;62.30;;
72686;Laerm;61365;52.162;4.500;2023-09-18T04:07:09;44.30;31.42;64.25;;
72686;Laerm;61365;52.162;4.500;2023-09-18T04:09:36;43.56;31.35;62.24;;
72686;Laerm;61365;52.162;4.500;2023-09-18T04:12:03;43.88;31.36;63.45;;
72686;Laerm;61365;52.162;4.500;2023-09-18T04:14:33;43.55;31.41;64.34;;
72686;Laerm;61365;52.162;4.500;2023-09-18T04:16:59;44.28;31.67;64.07;;
72686;Laerm;61365;52.162;4.500;2023-09-18T04:19:28;44.07;31.41;63.28;;
72686;Laerm;61365;52.162;4.500;2023-09-18T04:21:55;43.38;31.47;62.19;;
72686;Laerm;61365;52.162;4.500;2023-09-18T04:24:22;42.49;33.77;53.04;;
72686;Laerm;61365;52.162;4.500;2023-09-18T04:26:48;43.17;32.06;62.08;;
72686;Laerm;61365;52.162;4.500;2023-09-18T04:29:17;44.05;31.50;63.49;;
72686;Laerm;61365;52.162;4.500;2023-09-18T04:31:43;43.76;31.53;62.11;;
72686;Laerm;61365;52.162;4.500;2023-09-18T04:34:11;43.88;32.03;63.80;;
72686;Laerm;61365;52.162;4.500;2023-09-18T04:36:37;43.62;31.43;62.13;;
72686;Laerm;61365;52.162;4.500;2023-09-18T04:39:04;44.52;31.33;64.42;;
72686;Laerm;61365;52.162;4.500;2023-09-18T04:41:31;44.13;31.44;64.20;;
72686;Laerm;61365;52.162;4.500;2023-09-18T04:43:57;43.96;31.62;63.21;;
72686;Laerm;61365;52.162;4.500;2023-09-18T04:46:23;44.46;31.64;62.17;;
72686;Laerm;61365;52.162;4.500;2023-09-18T04:48:51;44.27;31.72;62.16;;
72686;Laerm;61365;52.162;4.500;2023-09-18T04:51:17;44.37;31.54;62.15;;
72686;Laerm;61365;52.162;4.500;2023-09-18T04:53:43;44.45;31.50;62.09;;
72686;Laerm;61365;52.162;4.500;2023-09-18T04:56:12;44.78;31.51;66.12;;
72686;Laerm;61365;52.162;4.500;2023-09-18T04:58:38;44.64;31.42;62.70;;
72686;Laerm;61365;52.162;4.500;2023-09-18T05:01:05;44.33;31.01;62.19;;
72686;Laerm;61365;52.162;4.500;2023-09-18T05:03:34;44.80;31.25;65.79;;
72686;Laerm;61365;52.162;4.500;2023-09-18T05:06:01;45.12;31.08;63.47;;
72686;Laerm;61365;52.162;4.500;2023-09-18T05:08:28;43.81;31.22;64.26;;
72686;Laerm;61365;52.162;4.500;2023-09-18T05:10:55;44.11;31.41;62.26;;
72686;Laerm;61365;52.162;4.500;2023-09-18T05:13:21;44.81;31.20;63.60;;
72686;Laerm;61365;52.162;4.500;2023-09-18T05:15:47;44.66;31.22;62.43;;
72686;Laerm;61365;52.162;4.500;2023-09-18T05:18:13;45.18;30.97;63.84;;
72686;Laerm;61365;52.162;4.500;2023-09-18T05:20:39;43.60;31.41;62.79;;
72686;Laerm;61365;52.162;4.500;2023-09-18T05:23:06;42.70;33.62;54.88;;
72686;Laerm;61365;52.162;4.500;2023-09-18T05:25:33;42.80;33.57;55.04;;
72686;Laerm;61365;52.162;4.500;2023-09-18T05:28:00;42.76;33.69;53.34;;
72686;Laerm;61365;52.162;4.500;2023-09-18T05:30:34;42.57;33.20;55.22;;
72686;Laerm;61365;52.162;4.500;2023-09-18T05:33:02;42.62;33.95;53.32;;
72686;Laerm;61365;52.162;4.500;2023-09-18T05:35:41;43.44;33.07;62.72;;
72686;Laerm;61365;52.162;4.500;2023-09-18T05:38:09;45.17;31.35;62.23;;
72686;Laerm;61365;52.162;4.500;2023-09-18T05:40:36;44.76;31.16;64.28;;
72686;Laerm;61365;52.162;4.500;2023-09-18T05:43:03;43.70;31.40;62.31;;
72686;Laerm;61365;52.162;4.500;2023-09-18T05:45:29;42.72;33.43;53.53;;
72686;Laerm;61365;52.162;4.500;2023-09-18T05:47:57;42.76;33.73;54.78;;
72686;Laerm;61365;52.162;4.500;2023-09-18T05:50:34;42.69;33.80;53.20;;
72686;Laerm;61365;52.162;4.500;2023-09-18T05:53:01;42.84;33.60;55.11;;
72686;Laerm;61365;52.162;4.500;2023-09-18T05:55:35;42.85;33.63;53.39;;
72686;Laerm;61365;52.162;4.500;2023-09-18T05:58:02;42.65;33.41;53.46;;
72686;Laerm;61365;52.162;4.500;2023-09-18T06:00:30;42.82;33.50;54.00;;
72686;Laerm;61365;52.162;4.500;2023-09-18T06:02:56;42.78;33.74;53.90;;
72686;Laerm;61365;52.162;4.500;2023-09-18T06:05:22;42.75;33.73;53.40;;
72686;Laerm;61365;52.162;4.500;2023-09-18T06:07:49;42.77;33.67;53.76;;
72686;Laerm;61365;52.162;4.500;2023-09-18T06:10:15;42.66;33.35;53.47;;
72686;Laerm;61365;52.162;4.500;2023-09-18T06:12:42;42.65;33.76;53.81;;
72686;Laerm;61365;52.162;4.500;2023-09-18T06:15:09;42.65;33.78;53.38;;
72686;Laerm;61365;52.162;4.500;2023-09-18T06:17:38;45.88;31.40;63.49;;
72686;Laerm;61365;52.162;4.500;2023-09-18T06:20:06;45.67;31.14;62.32;;
72686;Laerm;61365;52.162;4.500;2023-09-18T06:22:37;46.27;30.74;63.33;;
72686;Laerm;61365;52.162;4.500;2023-09-18T06:25:05;45.75;31.28;65.53;;
72686;Laerm;61365;52.162;4.500;2023-09-18T06:27:34;44.41;31.17;64.32;;
72686;Laerm;61365;52.162;4.500;2023-09-18T06:30:01;42.85;33.30;54.29;;
72686;Laerm;61365;52.162;4.500;2023-09-18T06:32:27;42.63;33.47;53.42;;
72686;Laerm;61365;52.162;4.500;2023-09-18T06:34:53;42.68;33.34;53.33;;
72686;Laerm;61365;52.162;4.500;2023-09-18T06:37:19;42.71;33.80;53.42;;
72686;Laerm;61365;52.162;4.500;2023-09-18T06:39:46;42.62;33.55;53.20;;
72686;Laerm;61365;52.162;4.500;2023-09-18T06:42:12;42.74;33.38;54.43;;
72686;Laerm;61365;52.162;4.500;2023-09-18T06:44:38;42.78;33.56;54.44;;
72686;Laerm;61365;52.162;4.500;2023-09-18T06:47:04;42.79;33.70;54.98;;
72686;Laerm;61365;52.162;4.500;2023-09-18T06:49:30;42.89;33.52;53.29;;
72686;Laerm;61365;52.162;4.500;2023-09-18T06:51:56;42.72;33.72;53.09;;
72686;Laerm;61365;52.162;4.500;2023-09-18T06:54:23;42.69;33.40;53.20;;
72686;Laerm;61365;52.162;4.500;2023-09-18T06:56:49;42.71;33.46;54.48;;
72686;Laerm;61365;52.162;4.500;2023-09-18T06:59:15;42.70;33.55;54.43;;
72686;Laerm;61365;52.162;4.500;2023-09-18T07:01:41;42.85;33.42;53.41;;
72686;Laerm;61365;52.162;4.500;2023-09-18T07:04:08;42.80;33.43;53.16;;
72686;Laerm;61365;52.162;4.500;2023-09-18T07:06:35;42.89;33.79;55.00;;
72686;Laerm;61365;52.162;4.500;2023-09-18T07:09:01;42.78;33.36;53.22;;
72686;Laerm;61365;52.162;4.500;2023-09-18T07:11:29;42.76;33.52;53.20;;
72686;Laerm;61365;52.162;4.500;2023-09-18T07:13:55;42.78;33.47;53.78;;
72686;Laerm;61365;52.162;4.500;2023-09-18T07:16:21;42.69;33.57;53.80;;
72686;Laerm;61365;52.162;4.500;2023-09-18T07:18:48;42.83;33.28;53.25;;
72686;Laerm;61365;52.162;4.500;2023-09-18T07:21:14;45.78;30.95;63.21;;
72686;Laerm;61365;52.162;4.500;2023-09-18T07:23:40;46.42;31.03;63.90;;
72686;Laerm;61365;52.162;4.500;2023-09-18T07:26:06;46.61;30.93;65.61;;
72686;Laerm;61365;52.162;4.500;2023-09-18T07:28:32;45.94;30.97;62.37;;
72686;Laerm;61365;52.162;4.500;2023-09-18T07:31:05;46.77;31.17;63.85;;
72686;Laerm;61365;52.162;4.500;2023-09-18T07:33:32;46.87;31.10;63.40;;
72686;Laerm;61365;52.162;4.500;2023-09-18T07:35:58;47.28;31.15;63.45;;
72686;Laerm;61365;52.162;4.500;2023-09-18T07:38:24;46.78;31.06;63.83;;
72686;Laerm;61365;52.162;4.500;2023-09-18T07:40:50;47.18;30.99;65.83;;
72686;Laerm;61365;52.162;4.500;2023-09-18T07:43:16;46.91;31.24;63.69;;
72686;Laerm;61365;52.162;4.500;2023-09-18T07:45:43;47.95;31.04;65.95;;
72686;Laerm;61365;52.162;4.500;2023-09-18T07:48:09;47.67;30.93;63.67;;
72686;Laerm;61365;52.162;4.500;2023-09-18T07:50:35;48.14;30.86;66.64;;
72686;Laerm;61365;52.162;4.500;2023-09-18T07:53:02;48.99;30.74;66.32;;
72686;Laerm;61365;52.162;4.500;2023-09-18T07:55:28;48.53;30.68;66.38;;
72686;Laerm;61365;52.162;4.500;2023-09-18T07:57:56;49.17;31.01;64.10;;
72686;Laerm;61365;52.162;4.500;2023-09-18T08:00:22;50.12;31.08;66.21;;
72686;Laerm;61365;52.162;4.500;2023-09-18T08:02:48;43.90;31.38;65.86;;
72686;Laerm;61365;52.162;4.500;2023-09-18T08:05:18;42.84;32.62;55.60;;
72686;Laerm;61365;52.162;4.500;2023-09-18T08:07:44;50.32;31.06;66.41;;
72686;Laerm;61365;52.162;4.500;2023-09-18T08:10:12;50.63;30.97;66.10;;
72686;Laerm;61365;52.162;4.500;2023-09-18T08:12:39;50.99;30.95;66.46;;
72686;Laerm;61365;52.162;4.500;2023-09-18T08:15:05;51.66;31.13;66.54;;
72686;Laerm;61365;52.162;4.500;2023-09-18T08:17:32;51.59;30.89;66.54;;
72686;Laerm;61365;52.162;4.500;2023-09-18T08:19:58;51.56;31.21;66.30;;
72686;Laerm;61365;52.162;4.500;2023-09-18T08:22:24;50.96;31.10;66.74;;
72686;Laerm;61365;52.162;4.500;2023-09-18T08:24:50;43.23;32.66;56.54;;
72686;Laerm;61365;52.162;4.500;2023-09-18T08:27:19;43.02;32.49;56.62;;
72686;Laerm;61365;52.162;4.500;2023-09-18T08:29:45;42.89;33.33;55.38;;
72686;Laerm;61365;52.162;4.500;2023-09-18T08:32:12;43.07;32.48;55.94;;
72686;Laerm;61365;52.162;4.500;2023-09-18T08:34:38;43.03;33.14;56.94;;
72686;Laerm;61365;52.162;4.500;2023-09-18T08:37:05;42.92;32.98;54.49;;
72686;Laerm;61365;52.162;4.500;2023-09-18T08:39:31;43.04;32.45;55.05;;
72686;Laerm;61365;52.162;4.500;2023-09-18T08:42:03;43.11;33.11;56.42;;
72686;Laerm;61365;52.162;4.500;2023-09-18T08:44:30;42.77;33.25;54.33;;
72686;Laerm;61365;52.162;4.500;2023-09-18T08:46:57;43.11;33.00;56.26;;
72686;Laerm;61365;52.162;4.500;2023-09-18T08:49:24;43.01;33.04;54.84;;
72686;Laerm;61365;52.162;4.500;2023-09-18T08:51:54;43.09;33.00;56.37;;
72686;Laerm;61365;52.162;4.500;2023-09-18T08:54:22;44.80;31.77;64.48;;
72686;Laerm;61365;52.162;4.500;2023-09-18T08:56:51;53.03;31.24;66.82;;
72686;Laerm;61365;52.162;4.500;2023-09-18T08:59:21;53.12;31.26;66.98;;
72686;Laerm;61365;52.162;4.500;2023-09-18T09:01:48;53.05;31.13;66.88;;
72686;Laerm;61365;52.162;4.500;2023-09-18T09:04:14;53.16;31.46;66.61;;
72686;Laerm;61365;52.162;4.500;2023-09-18T09:06:40;53.44;31.24;67.56;;
72686;Laerm;61365;52.162;4.500;2023-09-18T09:09:06;53.12;31.07;66.83;;
72686;Laerm;61365;52.162;4.500;2023-09-18T09:11:34;53.81;31.36;66.90;;
72686;Laerm;61365;52.162;4.500;2023-09-18T09:14:13;53.66;31.36;66.72;;
72686;Laerm;61365;52.162;4.500;2023-09-18T09:16:49;53.69;31.61;66.77;;
72686;Laerm;61365;52.162;4.500;2023-09-18T09:19:16;53.57;31.40;66.93;;
72686;Laerm;61365;52.162;4.500;2023-09-18T09:21:43;53.49;31.58;68.74;;
72686;Laerm;61365;52.162;4.500;2023-09-18T09:24:12;53.61;31.01;66.99;;
72686;Laerm;61365;52.162;4.500;2023-09-18T09:26:42;53.72;31.22;66.81;;
72686;Laerm;61365;52.162;4.500;2023-09-18T09:29:16;52.59;31.30;66.77;;
72686;Laerm;61365;52.162;4.500;2023-09-18T09:31:44;43.30;33.49;56.74;;
72686;Laerm;61365;52.162;4.500;2023-09-18T09:34:24;43.14;33.19;56.26;;
72686;Laerm;61365;52.162;4.500;2023-09-18T09:36:56;50.22;31.59;66.80;;
72686;Laerm;61365;52.162;4.500;2023-09-18T09:39:22;53.87;31.35;66.88;;
72686;Laerm;61365;52.162;4.500;2023-09-18T09:41:53;54.20;31.39;66.92;;
72686;Laerm;61365;52.162;4.500;2023-09-18T09:44:20;54.14;31.35;67.63;;
72686;Laerm;61365;52.162;4.500;2023-09-18T09:46:48;54.11;31.61;67.44;;
72686;Laerm;61365;52.162;4.500;2023-09-18T09:49:15;54.46;31.46;66.88;;
72686;Laerm;61365;52.162;4.500;2023-09-18T09:51:45;46.22;32.12;66.45;;
72686;Laerm;61365;52.162;4.500;2023-09-18T09:54:12;43.41;32.63;56.95;;
72686;Laerm;61365;52.162;4.500;2023-09-18T09:56:48;43.35;33.12;57.12;;
72686;Laerm;61365;52.162;4.500;2023-09-18T09:59:17;47.31;32.08;66.48;;
72686;Laerm;61365;52.162;4.500;2023-09-18T10:01:48;54.48;31.51;67.47;;
72686;Laerm;61365;52.162;4.500;2023-09-18T10:04:18;54.77;31.52;67.30;;
72686;Laerm;61365;52.162;4.500;2023-09-18T10:06:55;53.56;31.82;66.80;;
72686;Laerm;61365;52.162;4.500;2023-09-18T10:09:24;43.51;33.21;57.23;;
72686;Laerm;61365;52.162;4.500;2023-09-18T10:11:54;43.26;33.10;54.52;;
72686;Laerm;61365;52.162;4.500;2023-09-18T10:14:32;43.21;33.58;57.25;;
72686;Laerm;61365;52.162;4.500;2023-09-18T10:17:22;43.79;32.70;56.14;;
72686;Laerm;61365;52.162;4.500;2023-09-18T10:20:07;43.57;33.17;56.33;;
72686;Laerm;61365;52.162;4.500;2023-09-18T10:22:45;43.18;33.00;57.20;;
72686;Laerm;61365;52.162;4.500;2023-09-18T10:25:22;53.72;31.63;67.40;;
72686;Laerm;61365;52.162;4.500;2023-09-18T10:27:51;54.69;31.40;68.61;;
72686;Laerm;61365;52.162;4.500;2023-09-18T10:30:24;55.00;31.23;68.84;;
72686;Laerm;61365;52.162;4.500;2023-09-18T10:32:51;55.02;31.64;67.22;;
72686;Laerm;61365;52.162;4.500;2023-09-18T10:35:18;54.55;31.68;68.32;;
72686;Laerm;61365;52.162;4.500;2023-09-18T10:37:46;50.04;31.69;67.24;;
72686;Laerm;61365;52.162;4.500;2023-09-18T10:40:13;43.63;32.64;57.13;;
72686;Laerm;61365;52.162;4.500;2023-09-18T10:42:41;43.47;32.91;57.06;;
72686;Laerm;61365;52.162;4.500;2023-09-18T10:45:09;43.37;33.35;56.91;;
72686;Laerm;61365;52.162;4.500;2023-09-18T10:47:40;43.30;33.00;56.13;;
72686;Laerm;61365;52.162;4.500;2023-09-18T10:50:08;43.51;33.05;57.25;;
72686;Laerm;61365;52.162;4.500;2023-09-18T10:52:36;43.37;33.02;56.36;;
72686;Laerm;61365;52.162;4.500;2023-09-18T10:55:04;43.64;32.69;56.36;;
72686;Laerm;61365;52.162;4.500;2023-09-18T10:57:36;53.46;31.44;68.00;;
72686;Laerm;61365;52.162;4.500;2023-09-18T11:00:04;55.36;31.57;67.12;;
72686;Laerm;61365;52.162;4.500;2023-09-18T11:02:40;55.03;31.41;67.23;;
72686;Laerm;61365;52.162;4.500;2023-09-18T11:05:06;54.74;31.34;68.58;;
72686;Laerm;61365;52.162;4.500;2023-09-18T11:07:33;55.13;31.26;66.91;;
72686;Laerm;61365;52.162;4.500;2023-09-18T11:09:59;54.91;31.30;67.58;;
72686;Laerm;61365;52.162;4.500;2023-09-18T11:12:45;55.30;31.17;67.51;;
72686;Laerm;61365;52.162;4.500;2023-09-18T11:15:26;54.79;31.41;68.45;;
72686;Laerm;61365;52.162;4.500;2023-09-18T11:18:01;54.97;31.31;67.71;;
72686;Laerm;61365;52.162;4.500;2023-09-18T11:20:28;51.47;31.54;67.62;;
72686;Laerm;61365;52.162;4.500;2023-09-18T11:22:55;51.81;31.56;66.86;;
72686;Laerm;61365;52.162;4.500;2023-09-18T11:25:38;55.15;31.32;68.66;;
72686;Laerm;61365;52.162;4.500;2023-09-18T11:28:05;54.56;31.11;67.43;;
72686;Laerm;61365;52.162;4.500;2023-09-18T11:30:36;55.00;31.25;67.29;;
72686;Laerm;61365;52.162;4.500;2023-09-18T11:33:04;55.22;31.33;67.93;;
72686;Laerm;61365;52.162;4.500;2023-09-18T11:35:34;55.07;31.50;67.23;;
72686;Laerm;61365;52.162;4.500;2023-09-18T11:38:09;54.80;31.28;68.48;;
72686;Laerm;61365;52.162;4.500;2023-09-18T11:40:38;55.28;31.40;66.87;;
72686;Laerm;61365;52.162;4.500;2023-09-18T11:45:57;55.17;31.12;66.88;;
72686;Laerm;61365;52.162;4.500;2023-09-18T11:48:26;54.95;31.41;67.60;;
72686;Laerm;61365;52.162;4.500;2023-09-18T11:50:57;53.76;31.29;67.36;;
72686;Laerm;61365;52.162;4.500;2023-09-18T11:53:26;42.90;32.99;54.50;;
72686;Laerm;61365;52.162;4.500;2023-09-18T11:55:53;43.06;33.25;55.15;;
72686;Laerm;61365;52.162;4.500;2023-09-18T11:58:20;42.66;33.20;56.53;;
72686;Laerm;61365;52.162;4.500;2023-09-18T12:00:50;43.08;32.74;56.09;;
72686;Laerm;61365;52.162;4.500;2023-09-18T12:03:20;51.81;31.41;67.31;;
72686;Laerm;61365;52.162;4.500;2023-09-18T12:06:01;55.16;31.42;68.59;;
72686;Laerm;61365;52.162;4.500;2023-09-18T12:08:31;55.17;31.27;67.14;;
72686;Laerm;61365;52.162;4.500;2023-09-18T12:10:58;55.12;31.49;67.24;;
72686;Laerm;61365;52.162;4.500;2023-09-18T12:13:27;55.24;30.95;67.35;;
72686;Laerm;61365;52.162;4.500;2023-09-18T12:15:59;55.18;31.41;67.64;;
72686;Laerm;61365;52.162;4.500;2023-09-18T12:18:27;55.25;31.22;68.24;;
72686;Laerm;61365;52.162;4.500;2023-09-18T12:20:58;49.97;31.45;66.75;;
72686;Laerm;61365;52.162;4.500;2023-09-18T12:23:25;52.28;31.22;68.94;;
72686;Laerm;61365;52.162;4.500;2023-09-18T12:26:00;55.06;31.21;68.28;;
72686;Laerm;61365;52.162;4.500;2023-09-18T12:28:27;55.25;31.49;67.85;;
72686;Laerm;61365;52.162;4.500;2023-09-18T12:30:56;54.95;31.41;67.07;;
72686;Laerm;61365;52.162;4.500;2023-09-18T12:33:23;55.09;31.41;67.14;;
72686;Laerm;61365;52.162;4.500;2023-09-18T12:35:50;55.21;31.56;66.60;;
72686;Laerm;61365;52.162;4.500;2023-09-18T12:38:18;54.57;31.24;68.51;;
72686;Laerm;61365;52.162;4.500;2023-09-18T12:40:53;55.06;31.28;66.57;;
72686;Laerm;61365;52.162;4.500;2023-09-18T12:43:23;54.67;31.31;67.18;;
72686;Laerm;61365;52.162;4.500;2023-09-18T12:45:50;42.89;32.88;57.42;;
72686;Laerm;61365;52.162;4.500;2023-09-18T12:48:18;43.07;32.81;56.03;;
72686;Laerm;61365;52.162;4.500;2023-09-18T12:50:45;42.63;33.16;54.44;;
72686;Laerm;61365;52.162;4.500;2023-09-18T12:53:12;43.12;32.82;56.98;;
72686;Laerm;61365;52.162;4.500;2023-09-18T12:55:39;52.05;31.41;68.42;;
72686;Laerm;61365;52.162;4.500;2023-09-18T12:58:06;54.77;31.39;66.61;;
72686;Laerm;61365;52.162;4.500;2023-09-18T13:00:35;54.70;31.58;66.59;;
72686;Laerm;61365;52.162;4.500;2023-09-18T13:03:03;52.62;31.43;67.17;;
72686;Laerm;61365;52.162;4.500;2023-09-18T13:05:30;42.76;32.45;56.95;;
72686;Laerm;61365;52.162;4.500;2023-09-18T13:08:05;43.01;32.93;55.59;;
72686;Laerm;61365;52.162;4.500;2023-09-18T13:10:43;43.06;32.98;56.26;;
72686;Laerm;61365;52.162;4.500;2023-09-18T13:13:18;42.82;32.91;55.33;;
72686;Laerm;61365;52.162;4.500;2023-09-18T13:15:45;42.87;32.83;56.99;;
72686;Laerm;61365;52.162;4.500;2023-09-18T13:18:14;42.75;32.59;54.95;;
72686;Laerm;61365;52.162;4.500;2023-09-18T13:20:41;42.89;32.32;57.20;;
72686;Laerm;61365;52.162;4.500;2023-09-18T13:23:08;42.88;32.47;54.49;;
72686;Laerm;61365;52.162;4.500;2023-09-18T13:25:38;42.93;32.01;55.99;;
72686;Laerm;61365;52.162;4.500;2023-09-18T13:28:07;42.77;32.34;54.50;;
72686;Laerm;61365;52.162;4.500;2023-09-18T13:30:38;42.95;32.86;54.44;;
72686;Laerm;61365;52.162;4.500;2023-09-18T13:35:33;54.80;31.37;66.46;;
72686;Laerm;61365;52.162;4.500;2023-09-18T13:38:00;55.01;31.08;67.44;;
72686;Laerm;61365;52.162;4.500;2023-09-18T13:40:26;54.77;31.31;66.58;;
72686;Laerm;61365;52.162;4.500;2023-09-18T13:42:53;54.89;31.03;67.24;;
72686;Laerm;61365;52.162;4.500;2023-09-18T13:45:20;55.06;31.49;67.99;;
72686;Laerm;61365;52.162;4.500;2023-09-18T13:47:46;54.73;31.45;68.73;;
72686;Laerm;61365;52.162;4.500;2023-09-18T13:50:12;54.63;31.03;68.54;;
72686;Laerm;61365;52.162;4.500;2023-09-18T13:52:39;54.76;31.22;67.19;;
72686;Laerm;61365;52.162;4.500;2023-09-18T13:55:05;50.67;31.16;66.42;;
72686;Laerm;61365;52.162;4.500;2023-09-18T13:57:32;42.92;32.34;55.30;;